createdAt,value
2018-09-09T00:00:02.294Z,2.43
2018-09-09T00:02:29.823Z,2.30
2018-09-09T00:04:57.346Z,2.17
2018-09-09T00:07:24.985Z,2.30
2018-09-09T00:09:52.568Z,2.80
2018-09-09T00:12:20.478Z,2.70
2018-09-09T00:14:48.218Z,2.07
2018-09-09T00:17:15.839Z,2.00
2018-09-09T00:19:43.357Z,2.23
2018-09-09T00:22:11.032Z,2.50
2018-09-09T00:24:38.475Z,2.27
2018-09-09T00:27:06.159Z,1.60
2018-09-09T00:29:33.804Z,1.87
2018-09-09T00:32:01.525Z,2.57
2018-09-09T00:34:28.996Z,2.50
2018-09-09T00:36:56.575Z,2.30
2018-09-09T00:39:24.123Z,2.80
2018-09-09T00:41:51.670Z,2.23
2018-09-09T00:44:19.267Z,2.17
2018-09-09T00:46:46.911Z,2.00
2018-09-09T00:49:20.161Z,3.10
2018-09-09T00:51:53.324Z,2.13
2018-09-09T00:54:20.852Z,1.90
2018-09-09T00:56:48.371Z,2.30
2018-09-09T00:59:16.028Z,2.00
2018-09-09T01:01:43.517Z,2.37
2018-09-09T01:04:11.110Z,2.00
2018-09-09T01:06:38.691Z,2.30
2018-09-09T01:09:08.334Z,1.87
2018-09-09T01:11:36.554Z,1.70
2018-09-09T01:14:04.772Z,2.13
2018-09-09T01:16:32.597Z,1.70
2018-09-09T01:19:00.245Z,2.00
2018-09-09T01:21:27.843Z,2.53
2018-09-09T01:23:55.592Z,2.13
2018-09-09T01:26:23.239Z,2.03
2018-09-09T01:28:50.759Z,2.50
2018-09-09T01:31:18.386Z,2.30
2018-09-09T01:33:45.880Z,2.33
2018-09-09T01:36:13.521Z,5.50
2018-09-09T01:38:42.717Z,2.83
2018-09-09T01:41:11.933Z,2.40
2018-09-09T01:43:39.522Z,2.20
2018-09-09T01:46:07.005Z,2.13
2018-09-09T01:48:34.511Z,2.87
2018-09-09T01:51:01.972Z,1.97
2018-09-09T01:53:29.441Z,2.13
2018-09-09T01:55:57.036Z,2.00
2018-09-09T01:58:24.568Z,1.80
2018-09-09T02:00:52.162Z,1.60
2018-09-09T02:03:20.321Z,1.80
2018-09-09T02:05:48.268Z,2.10
2018-09-09T02:08:16.879Z,1.60
2018-09-09T02:10:45.880Z,2.30
2018-09-09T02:13:14.411Z,2.60
2018-09-09T02:15:42.008Z,1.90
2018-09-09T02:18:09.507Z,2.30
2018-09-09T02:20:37.016Z,3.43
2018-09-09T02:23:04.782Z,1.70
2018-09-09T02:25:32.276Z,1.70
2018-09-09T02:27:59.774Z,1.73
2018-09-09T02:30:27.779Z,2.13
2018-09-09T02:32:55.277Z,1.60
2018-09-09T02:35:23.075Z,1.93
2018-09-09T02:37:50.535Z,1.57
2018-09-09T02:40:18.234Z,2.17
2018-09-09T02:42:45.706Z,2.00
2018-09-09T02:45:13.208Z,2.10
2018-09-09T02:47:40.725Z,1.70
2018-09-09T02:50:08.188Z,1.77
2018-09-09T02:52:35.712Z,1.57
2018-09-09T02:55:04.098Z,1.90
2018-09-09T02:57:32.226Z,2.43
2018-09-09T02:59:59.881Z,1.83
2018-09-09T03:02:27.533Z,2.03
2018-09-09T03:04:54.982Z,2.10
2018-09-09T03:07:22.683Z,2.03
2018-09-09T03:09:50.226Z,2.40
2018-09-09T03:12:17.686Z,2.40
2018-09-09T03:14:45.275Z,2.83
2018-09-09T03:17:13.305Z,2.73
2018-09-09T03:19:40.874Z,3.10
2018-09-09T03:22:08.331Z,4.00
2018-09-09T03:24:35.899Z,3.40
2018-09-09T03:27:03.460Z,5.70
2018-09-09T03:29:31.089Z,5.17
2018-09-09T03:31:58.536Z,4.83
2018-09-09T03:34:25.979Z,5.20
2018-09-09T03:36:53.424Z,6.40
2018-09-09T03:39:20.936Z,8.40
2018-09-09T03:41:48.511Z,7.13
2018-09-09T03:44:15.985Z,8.43
2018-09-09T03:46:43.452Z,9.10
2018-09-09T03:49:11.129Z,9.37
2018-09-09T03:51:38.863Z,7.90
2018-09-09T03:54:06.407Z,6.90
2018-09-09T03:56:33.912Z,5.70
2018-09-09T03:59:01.493Z,5.00
2018-09-09T04:01:29.045Z,2.70
2018-09-09T04:03:56.737Z,2.80
2018-09-09T04:06:24.812Z,3.03
2018-09-09T04:08:52.318Z,2.67
2018-09-09T04:11:20.655Z,2.33
2018-09-09T04:13:48.156Z,2.30
2018-09-09T04:16:16.139Z,2.30
2018-09-09T04:18:43.678Z,2.13
2018-09-09T04:21:11.094Z,2.30
2018-09-09T04:23:38.922Z,1.97
2018-09-09T04:26:06.837Z,1.83
2018-09-09T04:28:34.400Z,2.60
2018-09-09T04:31:02.125Z,2.00
2018-09-09T04:33:29.584Z,2.07
2018-09-09T04:35:57.034Z,1.90
2018-09-09T04:38:24.487Z,2.13
2018-09-09T04:40:52.040Z,2.17
2018-09-09T04:43:19.616Z,2.17
2018-09-09T04:45:47.117Z,2.10
2018-09-09T04:48:14.638Z,2.77
2018-09-09T04:50:42.501Z,1.90
2018-09-09T04:53:10.063Z,2.30
2018-09-09T04:55:37.952Z,2.37
2018-09-09T04:58:05.418Z,2.30
2018-09-09T05:00:33.701Z,2.00
2018-09-09T05:03:01.346Z,1.87
2018-09-09T05:05:29.273Z,1.67
2018-09-09T05:07:57.395Z,2.20
2018-09-09T05:10:24.861Z,2.23
2018-09-09T05:12:52.319Z,2.20
2018-09-09T05:15:21.147Z,2.30
2018-09-09T05:17:48.652Z,2.40
2018-09-09T05:20:17.085Z,2.23
2018-09-09T05:22:44.563Z,2.33
2018-09-09T05:25:12.077Z,2.33
2018-09-09T05:27:39.597Z,1.90
2018-09-09T05:30:07.736Z,2.43
2018-09-09T05:32:35.208Z,2.00
2018-09-09T05:35:02.912Z,2.47
2018-09-09T05:37:30.487Z,2.20
2018-09-09T05:39:57.992Z,2.50
2018-09-09T05:42:25.679Z,2.33
2018-09-09T05:44:53.137Z,2.10
2018-09-09T05:47:20.774Z,2.90
2018-09-09T05:49:48.255Z,3.23
2018-09-09T05:52:15.975Z,2.73
2018-09-09T05:54:43.576Z,3.10
2018-09-09T05:57:11.129Z,3.50
2018-09-09T05:59:38.610Z,4.07
2018-09-09T06:02:06.092Z,3.30
2018-09-09T06:04:33.758Z,3.80
2018-09-09T06:07:01.225Z,4.70
2018-09-09T06:09:28.767Z,6.37
2018-09-09T06:11:57.898Z,7.07
2018-09-09T06:14:26.218Z,6.00
2018-09-09T06:16:54.541Z,6.93
2018-09-09T06:19:22.053Z,5.90
2018-09-09T06:21:50.692Z,4.57
2018-09-09T06:24:18.216Z,8.47
2018-09-09T06:26:45.736Z,13.03
2018-09-09T06:29:14.080Z,13.80
2018-09-09T06:31:42.889Z,11.53
2018-09-09T06:34:10.532Z,11.07
2018-09-09T06:36:38.843Z,10.93
2018-09-09T06:39:07.588Z,10.80
2018-09-09T06:41:36.488Z,9.03
2018-09-09T06:44:04.008Z,8.67
2018-09-09T06:46:31.415Z,9.40
2018-09-09T06:48:59.065Z,8.87
2018-09-09T06:51:27.090Z,8.80
2018-09-09T06:53:54.659Z,8.60
2018-09-09T06:56:22.870Z,8.80
2018-09-09T06:58:50.732Z,8.57
2018-09-09T07:01:20.207Z,9.83
2018-09-09T07:03:48.064Z,8.50
2018-09-09T07:06:15.490Z,8.03
2018-09-09T07:08:45.012Z,7.57
2018-09-09T07:11:12.701Z,7.47
2018-09-09T07:13:40.256Z,7.67
2018-09-09T07:16:07.726Z,7.40
2018-09-09T07:18:35.331Z,7.47
2018-09-09T07:21:02.940Z,7.30
2018-09-09T07:23:30.610Z,8.10
2018-09-09T07:25:59.252Z,6.93
2018-09-09T07:28:26.796Z,6.17
2018-09-09T07:30:54.295Z,7.90
2018-09-09T07:33:21.993Z,7.47
2018-09-09T07:35:49.684Z,6.50
2018-09-09T07:38:17.289Z,7.33
2018-09-09T07:40:44.950Z,6.90
2018-09-09T07:43:12.495Z,6.30
2018-09-09T07:45:40.658Z,6.57
2018-09-09T07:48:08.133Z,6.80
2018-09-09T07:50:35.838Z,6.97
2018-09-09T07:53:03.937Z,6.10
2018-09-09T07:55:31.392Z,6.87
2018-09-09T07:57:58.998Z,5.87
2018-09-09T08:00:26.580Z,6.77
2018-09-09T08:02:54.073Z,6.70
2018-09-09T08:05:21.572Z,5.93
2018-09-09T08:07:49.125Z,6.60
2018-09-09T08:10:16.637Z,5.17
2018-09-09T08:12:44.233Z,4.30
2018-09-09T08:15:11.805Z,4.37
2018-09-09T08:17:39.505Z,5.77
2018-09-09T08:20:07.073Z,5.60
2018-09-09T08:22:34.587Z,7.07
2018-09-09T08:25:02.128Z,5.53
2018-09-09T08:27:30.090Z,5.53
2018-09-09T08:29:57.667Z,4.77
2018-09-09T08:32:25.168Z,5.30
2018-09-09T08:34:52.620Z,4.43
2018-09-09T08:37:20.121Z,4.43
2018-09-09T08:39:47.618Z,4.83
2018-09-09T08:42:15.113Z,4.90
2018-09-09T08:44:42.625Z,3.90
2018-09-09T08:47:10.175Z,2.83
2018-09-09T08:49:37.674Z,3.27
2018-09-09T08:52:05.394Z,2.90
2018-09-09T08:54:32.837Z,3.07
2018-09-09T08:57:00.387Z,3.90
2018-09-09T08:59:27.971Z,3.80
2018-09-09T09:01:55.453Z,3.60
2018-09-09T09:04:22.996Z,3.13
2018-09-09T09:06:50.486Z,2.63
2018-09-09T09:09:18.037Z,3.00
2018-09-09T09:11:45.566Z,2.90
2018-09-09T09:14:13.046Z,3.17
2018-09-09T09:16:40.489Z,2.77
2018-09-09T09:19:08.027Z,3.73
2018-09-09T09:21:35.568Z,2.77
2018-09-09T09:24:03.100Z,2.40
2018-09-09T09:26:30.762Z,2.17
2018-09-09T09:28:58.183Z,2.97
2018-09-09T09:31:25.669Z,2.53
2018-09-09T09:33:53.120Z,2.40
2018-09-09T09:36:20.785Z,1.70
2018-09-09T09:38:48.249Z,2.40
2018-09-09T09:41:15.717Z,2.73
2018-09-09T09:43:43.202Z,2.57
2018-09-09T09:46:10.736Z,2.40
2018-09-09T09:48:38.507Z,2.77
2018-09-09T09:51:06.040Z,2.67
2018-09-09T09:53:33.550Z,2.20
2018-09-09T09:56:00.996Z,2.83
2018-09-09T09:58:28.476Z,2.80
2018-09-09T10:00:58.011Z,3.27
2018-09-09T10:03:25.551Z,2.53
2018-09-09T10:05:52.964Z,4.60
2018-09-09T10:08:20.493Z,2.73
2018-09-09T10:10:48.075Z,2.73
2018-09-09T10:13:15.625Z,2.70
2018-09-09T10:15:43.137Z,3.07
2018-09-09T10:18:10.626Z,2.37
2018-09-09T10:20:38.109Z,2.37
2018-09-09T10:23:05.685Z,2.40
2018-09-09T10:25:33.101Z,2.00
2018-09-09T10:28:01.203Z,2.87
2018-09-09T10:30:28.738Z,3.07
2018-09-09T10:32:56.227Z,2.53
2018-09-09T10:35:24.257Z,1.60
2018-09-09T10:37:51.788Z,3.27
2018-09-09T10:40:19.254Z,2.70
2018-09-09T10:42:46.757Z,2.67
2018-09-09T10:45:14.624Z,2.87
2018-09-09T10:47:42.330Z,2.90
2018-09-09T10:50:09.929Z,3.10
2018-09-09T10:52:38.317Z,2.83
2018-09-09T10:55:05.912Z,1.80
2018-09-09T10:57:33.414Z,2.60
2018-09-09T11:00:01.010Z,2.20
2018-09-09T11:02:28.551Z,2.43
2018-09-09T11:04:56.096Z,2.70
2018-09-09T11:07:23.618Z,2.33
2018-09-09T11:09:51.163Z,1.73
2018-09-09T11:12:22.978Z,2.67
2018-09-09T11:14:50.790Z,2.30
2018-09-09T11:17:18.304Z,1.80
2018-09-09T11:19:45.964Z,1.80
2018-09-09T11:22:14.513Z,1.80
2018-09-09T11:24:42.035Z,1.93
2018-09-09T11:27:09.764Z,2.63
2018-09-09T11:29:37.244Z,1.80
2018-09-09T11:32:04.804Z,2.17
2018-09-09T11:34:32.285Z,1.53
2018-09-09T11:36:59.805Z,2.00
2018-09-09T11:39:27.308Z,2.10
2018-09-09T11:41:54.856Z,1.60
2018-09-09T11:44:22.431Z,1.60
2018-09-09T11:46:50.000Z,2.07
2018-09-09T11:49:17.532Z,1.90
2018-09-09T11:51:45.116Z,2.00
2018-09-09T11:54:12.611Z,4.00
2018-09-09T11:56:40.185Z,2.73
2018-09-09T11:59:07.691Z,1.83
2018-09-09T12:01:35.204Z,2.13
2018-09-09T12:04:02.781Z,2.20
2018-09-09T12:06:30.322Z,2.00
2018-09-09T12:08:57.861Z,2.57
2018-09-09T12:11:25.419Z,1.80
2018-09-09T12:13:52.948Z,1.87
2018-09-09T12:16:21.350Z,2.30
2018-09-09T12:18:48.855Z,4.70
2018-09-09T12:21:16.432Z,2.70
2018-09-09T12:23:43.898Z,2.23
2018-09-09T12:26:11.429Z,2.00
2018-09-09T12:28:38.977Z,2.20
2018-09-09T12:31:06.545Z,2.00
2018-09-09T12:33:34.013Z,1.87
2018-09-09T12:36:01.558Z,1.60
2018-09-09T12:38:29.104Z,1.90
2018-09-09T12:40:56.720Z,1.67
2018-09-09T12:43:30.131Z,1.87
2018-09-09T12:46:03.361Z,2.00
2018-09-09T12:48:36.652Z,1.50
2018-09-09T12:51:04.220Z,1.67
2018-09-09T12:53:31.723Z,1.60
2018-09-09T12:55:59.252Z,1.60
2018-09-09T12:58:26.860Z,1.70
2018-09-09T13:00:54.514Z,1.67
2018-09-09T13:03:22.032Z,1.90
2018-09-09T13:05:49.492Z,2.20
2018-09-09T13:08:19.405Z,1.40
2018-09-09T13:10:46.948Z,1.90
2018-09-09T13:13:14.871Z,2.07
2018-09-09T13:15:42.372Z,1.90
2018-09-09T13:18:09.870Z,1.90
2018-09-09T13:20:37.351Z,1.57
2018-09-09T13:23:04.933Z,1.93
2018-09-09T13:25:32.417Z,1.87
2018-09-09T13:27:59.977Z,1.80
2018-09-09T13:30:27.550Z,1.73
2018-09-09T13:32:55.099Z,1.77
2018-09-09T13:35:23.400Z,1.83
2018-09-09T13:37:50.920Z,1.87
2018-09-09T13:40:18.450Z,1.57
2018-09-09T13:42:45.969Z,2.13
2018-09-09T13:45:13.479Z,1.87
2018-09-09T13:47:41.108Z,1.50
2018-09-09T13:50:08.657Z,1.40
2018-09-09T13:52:36.284Z,1.90
2018-09-09T13:55:03.774Z,1.60
2018-09-09T13:57:31.412Z,1.60
2018-09-09T13:59:58.960Z,1.27
2018-09-09T14:02:26.494Z,1.77
2018-09-09T14:04:54.024Z,1.67
2018-09-09T14:07:22.395Z,1.40
2018-09-09T14:09:49.889Z,1.80
2018-09-09T14:12:17.402Z,1.47
2018-09-09T14:14:44.953Z,1.43
2018-09-09T14:17:12.560Z,1.30
2018-09-09T14:19:40.155Z,1.43
2018-09-09T14:22:07.743Z,1.30
2018-09-09T14:24:35.244Z,1.47
2018-09-09T14:27:02.737Z,1.87
2018-09-09T14:29:30.242Z,1.50
2018-09-09T14:31:57.742Z,1.60
2018-09-09T14:34:25.384Z,1.50
2018-09-09T14:36:52.892Z,2.27
2018-09-09T14:39:20.387Z,1.47
2018-09-09T14:41:48.113Z,1.50
2018-09-09T14:44:15.613Z,1.87
2018-09-09T14:46:43.141Z,1.30
2018-09-09T14:49:10.710Z,1.70
2018-09-09T14:51:38.272Z,1.60
2018-09-09T14:54:05.756Z,1.57
2018-09-09T14:56:33.319Z,1.67
2018-09-09T14:59:00.855Z,1.37
2018-09-09T15:01:28.421Z,1.83
2018-09-09T15:03:55.934Z,1.70
2018-09-09T15:06:23.517Z,1.13
2018-09-09T15:08:51.047Z,1.63
2018-09-09T15:11:18.537Z,1.40
2018-09-09T15:13:46.113Z,1.27
2018-09-09T15:16:13.852Z,1.43
2018-09-09T15:18:41.470Z,1.53
2018-09-09T15:21:09.045Z,1.90
2018-09-09T15:23:36.642Z,1.63
2018-09-09T15:26:04.199Z,2.10
2018-09-09T15:28:32.351Z,1.87
2018-09-09T15:30:59.875Z,1.93
2018-09-09T15:33:27.359Z,1.80
2018-09-09T15:35:54.842Z,0.90
2018-09-09T15:38:22.461Z,1.13
2018-09-09T15:40:50.001Z,1.30
2018-09-09T15:43:17.603Z,1.20
2018-09-09T15:45:45.125Z,1.47
2018-09-09T15:48:13.226Z,1.17
2018-09-09T15:50:40.818Z,1.37
2018-09-09T15:53:08.388Z,1.70
2018-09-09T15:55:35.959Z,1.37
2018-09-09T15:58:03.539Z,1.77
2018-09-09T16:00:31.652Z,1.57
2018-09-09T16:02:59.134Z,1.53
2018-09-09T16:05:27.791Z,1.20
2018-09-09T16:07:55.300Z,2.10
2018-09-09T16:10:22.997Z,2.07
2018-09-09T16:12:50.566Z,1.53
2018-09-09T16:15:22.577Z,2.90
2018-09-09T16:17:52.639Z,2.00
2018-09-09T16:20:20.382Z,1.90
2018-09-09T16:22:48.125Z,1.50
2018-09-09T16:25:17.198Z,1.97
2018-09-09T16:27:45.617Z,1.60
2018-09-09T16:30:13.192Z,1.93
2018-09-09T16:32:40.655Z,1.70
2018-09-09T16:35:08.238Z,1.80
2018-09-09T16:37:35.760Z,1.70
2018-09-09T16:40:03.346Z,2.80
2018-09-09T16:42:31.708Z,1.93
2018-09-09T16:44:59.218Z,2.70
2018-09-09T16:47:26.770Z,1.97
2018-09-09T16:49:54.274Z,2.00
2018-09-09T16:52:21.856Z,1.90
2018-09-09T16:54:49.375Z,2.67
2018-09-09T16:57:16.901Z,2.30
2018-09-09T16:59:44.457Z,4.27
2018-09-09T17:02:12.269Z,2.07
2018-09-09T17:04:39.948Z,2.30
2018-09-09T17:07:07.499Z,2.10
2018-09-09T17:09:35.489Z,2.30
2018-09-09T17:12:03.066Z,1.80
2018-09-09T17:14:30.631Z,2.20
2018-09-09T17:16:58.157Z,2.57
2018-09-09T17:19:25.683Z,2.37
2018-09-09T17:21:53.311Z,2.30
2018-09-09T17:24:20.847Z,2.27
2018-09-09T17:26:48.444Z,2.73
2018-09-09T17:29:16.025Z,2.53
2018-09-09T17:31:43.574Z,2.80
2018-09-09T17:34:11.111Z,2.70
2018-09-09T17:36:38.660Z,3.17
2018-09-09T17:39:07.630Z,4.10
2018-09-09T17:41:35.127Z,4.00
2018-09-09T17:44:02.861Z,3.40
2018-09-09T17:46:30.383Z,3.57
2018-09-09T17:48:57.971Z,4.03
2018-09-09T17:51:25.553Z,3.03
2018-09-09T17:53:53.162Z,2.90
2018-09-09T17:56:20.687Z,3.47
2018-09-09T17:58:48.327Z,3.50
2018-09-09T18:01:15.812Z,2.80
2018-09-09T18:03:43.370Z,2.93
2018-09-09T18:06:10.916Z,2.57
2018-09-09T18:08:38.465Z,2.93
2018-09-09T18:11:05.977Z,2.80
2018-09-09T18:13:33.556Z,2.77
2018-09-09T18:16:01.180Z,3.00
2018-09-09T18:18:28.723Z,2.50
2018-09-09T18:20:56.463Z,2.40
2018-09-09T18:23:23.940Z,2.30
2018-09-09T18:25:51.519Z,2.60
2018-09-09T18:28:19.053Z,2.47
2018-09-09T18:30:46.639Z,3.40
2018-09-09T18:33:14.171Z,3.27
2018-09-09T18:35:41.717Z,2.93
2018-09-09T18:38:09.314Z,3.40
2018-09-09T18:40:36.860Z,3.30
2018-09-09T18:43:04.402Z,2.60
2018-09-09T18:45:31.926Z,2.97
2018-09-09T18:47:59.532Z,3.53
2018-09-09T18:50:27.072Z,2.87
2018-09-09T18:52:54.633Z,2.90
2018-09-09T18:55:22.176Z,3.17
2018-09-09T18:57:49.700Z,3.17
2018-09-09T19:00:17.201Z,3.07
2018-09-09T19:02:44.729Z,3.80
2018-09-09T19:05:12.328Z,3.67
2018-09-09T19:07:39.943Z,3.83
2018-09-09T19:10:07.542Z,2.80
2018-09-09T19:12:35.063Z,2.50
2018-09-09T19:15:02.682Z,2.60
2018-09-09T19:17:30.198Z,3.10
2018-09-09T19:19:57.716Z,2.30
2018-09-09T19:22:25.318Z,2.30
2018-09-09T19:24:52.857Z,2.70
2018-09-09T19:27:20.413Z,2.20
2018-09-09T19:29:48.027Z,2.00
2018-09-09T19:32:15.583Z,2.50
2018-09-09T19:34:43.158Z,2.40
2018-09-09T19:37:10.733Z,2.80
2018-09-09T19:39:38.293Z,2.10
2018-09-09T19:42:06.026Z,2.67
2018-09-09T19:44:34.208Z,2.70
2018-09-09T19:47:02.120Z,2.50
2018-09-09T19:49:29.667Z,2.60
2018-09-09T19:51:57.285Z,2.20
2018-09-09T19:54:25.053Z,2.30
2018-09-09T19:56:52.716Z,2.13
2018-09-09T19:59:20.421Z,3.40
2018-09-09T20:01:47.895Z,3.10
2018-09-09T20:04:15.491Z,2.60
2018-09-09T20:06:43.282Z,2.17
2018-09-09T20:09:10.878Z,2.17
2018-09-09T20:11:38.412Z,2.40
2018-09-09T20:14:06.619Z,2.77
2018-09-09T20:16:34.199Z,2.03
2018-09-09T20:19:01.861Z,2.83
2018-09-09T20:21:29.401Z,2.97
2018-09-09T20:23:57.017Z,2.80
2018-09-09T20:26:24.491Z,2.30
2018-09-09T20:28:51.933Z,3.10
2018-09-09T20:31:19.524Z,2.93
2018-09-09T20:33:47.194Z,3.73
2018-09-09T20:36:14.756Z,3.43
2018-09-09T20:38:42.406Z,2.50
2018-09-09T20:41:10.017Z,2.60
2018-09-09T20:43:37.550Z,2.67
2018-09-09T20:46:05.060Z,2.50
2018-09-09T20:48:32.553Z,1.97
2018-09-09T20:51:00.271Z,2.03
2018-09-09T20:53:27.829Z,3.30
2018-09-09T20:55:55.350Z,4.13
2018-09-09T20:58:23.134Z,3.57
2018-09-09T21:00:55.463Z,4.30
2018-09-09T21:03:23.674Z,4.07
2018-09-09T21:05:51.867Z,3.37
2018-09-09T21:08:19.384Z,3.33
2018-09-09T21:10:47.193Z,4.10
2018-09-09T21:13:15.338Z,3.90
2018-09-09T21:15:43.299Z,3.27
2018-09-09T21:18:10.868Z,2.73
2018-09-09T21:20:38.394Z,3.70
2018-09-09T21:23:05.952Z,3.33
2018-09-09T21:25:33.566Z,3.17
2018-09-09T21:28:01.594Z,2.70
2018-09-09T21:30:29.319Z,2.10
2018-09-09T21:32:57.044Z,2.97
2018-09-09T21:35:24.604Z,3.17
2018-09-09T21:37:52.263Z,3.10
2018-09-09T21:40:19.817Z,2.70
2018-09-09T21:42:47.454Z,2.53
2018-09-09T21:45:15.142Z,2.67
2018-09-09T21:47:43.370Z,2.57
2018-09-09T21:50:11.085Z,3.23
2018-09-09T21:52:38.632Z,2.23
2018-09-09T21:55:08.824Z,4.20
2018-09-09T21:57:37.758Z,3.40
2018-09-09T22:00:08.075Z,2.90
2018-09-09T22:02:35.779Z,3.97
2018-09-09T22:05:04.020Z,3.57
2018-09-09T22:07:31.932Z,2.73
2018-09-09T22:09:59.358Z,2.47
2018-09-09T22:12:26.761Z,2.80
2018-09-09T22:14:55.552Z,2.83
2018-09-09T22:17:26.554Z,2.90
2018-09-09T22:19:54.133Z,2.40
2018-09-09T22:22:22.807Z,3.13
2018-09-09T22:24:52.395Z,2.77
2018-09-09T22:27:20.312Z,3.80
2018-09-09T22:29:47.828Z,3.60
2018-09-09T22:32:16.040Z,6.00
2018-09-09T22:34:43.620Z,2.73
2018-09-09T22:37:11.170Z,2.03
2018-09-09T22:39:44.242Z,3.60
2018-09-09T22:42:12.471Z,3.00
2018-09-09T22:44:40.792Z,2.63
2018-09-09T22:47:11.558Z,5.13
2018-09-09T22:49:39.222Z,2.10
2018-09-09T22:52:06.676Z,2.17
2018-09-09T22:54:34.720Z,2.20
2018-09-09T22:57:03.936Z,1.97
2018-09-09T22:59:39.189Z,2.33
2018-09-09T23:02:06.780Z,2.33
2018-09-09T23:04:34.203Z,3.50
2018-09-09T23:07:01.657Z,2.07
2018-09-09T23:09:29.162Z,2.20
2018-09-09T23:11:56.595Z,2.40
2018-09-09T23:14:24.075Z,2.03
2018-09-09T23:16:51.793Z,1.73
2018-09-09T23:19:22.073Z,2.30
2018-09-09T23:21:50.969Z,2.30
2018-09-09T23:24:18.517Z,2.20
2018-09-09T23:26:46.094Z,2.50
2018-09-09T23:29:13.556Z,2.20
2018-09-09T23:31:41.796Z,2.50
2018-09-09T23:34:10.829Z,2.33
2018-09-09T23:36:38.215Z,3.90
2018-09-09T23:39:09.219Z,2.00
2018-09-09T23:41:37.394Z,2.60
2018-09-09T23:44:05.383Z,2.27
2018-09-09T23:46:33.916Z,1.97
2018-09-09T23:49:01.639Z,3.10
2018-09-09T23:51:29.056Z,2.13
2018-09-09T23:53:56.591Z,2.40
2018-09-09T23:56:24.173Z,3.70
2018-09-09T23:58:51.591Z,2.47
